createdAt,value
2022-12-05T00:10:21.202Z,97890
2022-12-05T00:22:21.194Z,97890
2022-12-05T00:34:21.201Z,97900
2022-12-05T00:46:21.364Z,97900
2022-12-05T00:58:21.255Z,97910
2022-12-05T01:10:21.310Z,97910
2022-12-05T01:22:21.196Z,97930
2022-12-05T01:34:21.309Z,97930
2022-12-05T01:46:21.250Z,97940
2022-12-05T01:58:21.191Z,97930
2022-12-05T02:10:21.318Z,97950
2022-12-05T02:22:21.196Z,97950
2022-12-05T02:34:21.307Z,97950
2022-12-05T02:46:21.306Z,97940
2022-12-05T02:58:21.305Z,97930
2022-12-05T03:10:21.223Z,97940
2022-12-05T03:22:21.194Z,97930
2022-12-05T03:34:21.233Z,97940
2022-12-05T03:46:21.398Z,97940
2022-12-05T03:58:21.191Z,97950
2022-12-05T04:10:21.265Z,97960
2022-12-05T04:22:21.195Z,97980
2022-12-05T04:34:21.289Z,97970
2022-12-05T04:46:21.301Z,97990
2022-12-05T04:58:21.197Z,97980
2022-12-05T05:10:21.201Z,97990
2022-12-05T05:22:21.202Z,97990
2022-12-05T05:34:21.257Z,98010
2022-12-05T05:46:21.363Z,98020
2022-12-05T05:58:21.197Z,98020
2022-12-05T06:10:21.306Z,98040
2022-12-05T06:22:21.244Z,98030
2022-12-05T06:34:21.292Z,98040
2022-12-05T06:46:21.314Z,98060
2022-12-05T06:58:21.195Z,98050
2022-12-05T07:10:21.193Z,98060
2022-12-05T07:22:21.194Z,98060
2022-12-05T07:34:21.207Z,98080
2022-12-05T07:46:21.993Z,98080
2022-12-05T07:58:21.196Z,98080
2022-12-05T08:10:21.192Z,98110
2022-12-05T08:22:21.221Z,98100
2022-12-05T08:34:21.203Z,98110
2022-12-05T08:46:21.377Z,98120
2022-12-05T08:58:21.198Z,98150
2022-12-05T09:10:21.192Z,98160
2022-12-05T09:22:21.199Z,98180
2022-12-05T09:34:21.210Z,98180
2022-12-05T09:46:21.373Z,98180
2022-12-05T09:58:21.197Z,98180
2022-12-05T10:10:21.310Z,98190
2022-12-05T10:22:21.990Z,98180
2022-12-05T10:34:21.206Z,98190
2022-12-05T10:46:21.416Z,98180
2022-12-05T10:58:21.192Z,98180
2022-12-05T11:10:26.334Z,98210
2022-12-05T11:22:21.562Z,98190
2022-12-05T11:34:21.476Z,98190
2022-12-05T11:46:26.441Z,98180
2022-12-05T11:58:21.197Z,98160
2022-12-05T12:10:21.205Z,98150
2022-12-05T12:22:21.188Z,98180
2022-12-05T12:34:21.297Z,98170
2022-12-05T12:46:21.291Z,98190
2022-12-05T12:58:21.200Z,98200
2022-12-05T13:10:21.282Z,98180
2022-12-05T13:22:21.195Z,98160
2022-12-05T13:34:21.315Z,98180
2022-12-05T13:46:21.237Z,98200
2022-12-05T13:58:21.197Z,98200
2022-12-05T14:10:21.258Z,98200
2022-12-05T14:22:21.201Z,98200
2022-12-05T14:34:21.198Z,98200
2022-12-05T14:46:21.280Z,98190
2022-12-05T14:58:21.240Z,98200
2022-12-05T15:10:21.292Z,98200
2022-12-05T15:22:21.203Z,98200
2022-12-05T15:34:21.316Z,98210
2022-12-05T15:46:21.358Z,98220
2022-12-05T15:58:22.088Z,98230
2022-12-05T16:10:23.475Z,98230
2022-12-05T16:22:21.198Z,98240
2022-12-05T16:34:21.321Z,98250
2022-12-05T16:46:21.313Z,98260
2022-12-05T16:58:21.206Z,98260
2022-12-05T17:10:21.277Z,98250
2022-12-05T17:22:21.199Z,98260
2022-12-05T17:34:21.298Z,98260
2022-12-05T17:46:21.239Z,98270
2022-12-05T17:58:21.213Z,98270
2022-12-05T18:10:21.306Z,98280
2022-12-05T18:22:21.881Z,98290
2022-12-05T18:34:21.289Z,98290
2022-12-05T18:46:21.268Z,98280
2022-12-05T18:58:21.256Z,98290
2022-12-05T19:10:21.255Z,98280
2022-12-05T19:22:21.194Z,98300
2022-12-05T19:34:21.214Z,98300
2022-12-05T19:46:21.363Z,98300
2022-12-05T19:58:21.199Z,98310
2022-12-05T20:10:21.330Z,98310
2022-12-05T20:22:21.249Z,98310
2022-12-05T20:34:21.294Z,98310
2022-12-05T20:46:21.325Z,98310
2022-12-05T20:58:21.296Z,98320
2022-12-05T21:10:21.249Z,98320
2022-12-05T21:22:21.255Z,98310
2022-12-05T21:34:21.229Z,98300
2022-12-05T21:46:21.351Z,98300
2022-12-05T21:58:21.251Z,98300
2022-12-05T22:10:21.195Z,98320
2022-12-05T22:22:21.189Z,98300
2022-12-05T22:34:21.214Z,98300
2022-12-05T22:46:21.270Z,98300
2022-12-05T22:58:21.315Z,98300
2022-12-05T23:10:21.307Z,98300
2022-12-05T23:22:21.196Z,98290
2022-12-05T23:34:21.231Z,98290
2022-12-05T23:46:21.377Z,98290
2022-12-05T23:58:21.196Z,98290
